Time,TemperatureF,DewpointF,PressureIn,WindDirection,WindDirectionDegrees,WindSpeedMPH,WindSpeedGustMPH,Humidity,HourlyPrecipIn,Conditions,Clouds,dailyrainin,SoftwareType,DateUTC
2013-02-07 00:00:00,57.0,55.6,28.30,East,90,13.0,17.0,95,0.00,,,0.00,meteohub,2013-02-07 06:00:00,
2013-02-07 00:05:00,56.8,55.4,28.30,East,90,12.0,17.0,95,0.00,,,0.00,meteohub,2013-02-07 06:05:00,
2013-02-07 00:10:00,57.0,55.6,28.30,East,90,11.0,15.0,95,0.00,,,0.00,meteohub,2013-02-07 06:10:00,
2013-02-07 00:15:00,57.2,55.8,28.30,SE,135,14.0,15.0,95,0.00,,,0.00,meteohub,2013-02-07 06:15:00,
2013-02-07 00:20:00,57.2,55.8,28.30,East,90,14.0,15.0,95,0.00,,,0.00,meteohub,2013-02-07 06:20:00,
2013-02-07 00:25:00,57.6,56.1,28.30,East,90,8.0,15.0,95,0.00,,,0.00,meteohub,2013-02-07 06:25:00,
2013-02-07 00:30:00,57.7,56.3,28.29,ESE,113,15.0,15.0,95,0.00,,,0.00,meteohub,2013-02-07 06:30:00,
2013-02-07 00:36:00,57.4,55.9,28.30,SE,135,11.0,15.0,95,0.00,,,0.00,meteohub,2013-02-07 06:36:00,
2013-02-07 00:41:00,57.4,55.9,28.30,East,90,12.0,16.0,95,0.00,,,0.00,meteohub,2013-02-07 06:41:00,
2013-02-07 00:46:00,57.0,55.9,28.30,SE,135,11.0,16.0,96,0.00,,,0.00,meteohub,2013-02-07 06:46:00,
2013-02-07 00:51:00,57.2,56.1,28.29,East,90,8.0,15.0,96,0.00,,,0.00,meteohub,2013-02-07 06:51:00,
2013-02-07 00:56:00,57.4,56.3,28.29,SE,135,11.0,15.0,96,0.00,,,0.00,meteohub,2013-02-07 06:56:00,
2013-02-07 01:01:00,57.4,56.5,28.29,East,90,8.0,15.0,97,0.00,,,0.00,meteohub,2013-02-07 07:01:00,
2013-02-07 01:06:00,57.7,56.8,28.29,East,90,13.0,13.0,97,0.00,,,0.00,meteohub,2013-02-07 07:06:00,
2013-02-07 01:11:00,58.1,57.6,28.29,East,90,12.0,14.0,98,0.00,,,0.00,meteohub,2013-02-07 07:11:00,
2013-02-07 01:16:00,58.5,57.9,28.29,East,90,15.0,15.0,98,0.00,,,0.00,meteohub,2013-02-07 07:16:00,
2013-02-07 01:21:00,58.3,57.7,28.29,East,90,16.0,16.0,98,0.00,,,0.00,meteohub,2013-02-07 07:21:00,
2013-02-07 01:26:00,58.5,57.9,28.28,SE,135,14.0,16.0,98,0.00,,,0.00,meteohub,2013-02-07 07:26:00,
2013-02-07 01:31:00,58.6,58.1,28.28,East,90,10.0,17.0,98,0.00,,,0.00,meteohub,2013-02-07 07:31:00,
2013-02-07 01:36:00,58.5,57.9,28.28,SE,135,11.0,17.0,98,0.00,,,0.00,meteohub,2013-02-07 07:36:00,
2013-02-07 01:41:00,58.5,57.9,28.28,SE,135,10.0,17.0,98,0.00,,,0.00,meteohub,2013-02-07 07:41:00,
2013-02-07 01:46:00,58.8,58.3,28.28,East,90,13.0,16.0,98,0.00,,,0.00,meteohub,2013-02-07 07:46:00,
2013-02-07 01:51:00,59.0,58.5,28.28,SE,135,11.0,16.0,98,0.00,,,0.00,meteohub,2013-02-07 07:51:00,
2013-02-07 01:56:00,59.0,58.5,28.28,East,90,9.0,17.0,98,0.00,,,0.00,meteohub,2013-02-07 07:56:00,
2013-02-07 02:01:00,58.8,58.3,28.28,East,90,7.0,17.0,98,0.00,,,0.00,meteohub,2013-02-07 08:01:00,
2013-02-07 02:06:00,59.4,58.8,28.28,East,90,11.0,17.0,98,0.00,,,0.00,meteohub,2013-02-07 08:06:00,
2013-02-07 02:11:00,59.2,58.6,28.28,SE,135,16.0,16.0,98,0.00,,,0.00,meteohub,2013-02-07 08:11:00,
2013-02-07 02:16:00,59.5,59.0,28.27,SE,135,13.0,16.0,98,0.00,,,0.00,meteohub,2013-02-07 08:16:00,
2013-02-07 02:21:00,59.2,58.3,28.28,East,90,13.0,16.0,97,0.00,,,0.00,meteohub,2013-02-07 08:21:00,
2013-02-07 02:26:00,59.4,58.5,28.28,East,90,8.0,17.0,97,0.00,,,0.00,meteohub,2013-02-07 08:26:00,
2013-02-07 02:31:00,59.4,58.5,28.28,SE,135,14.0,17.0,97,0.00,,,0.00,meteohub,2013-02-07 08:31:00,
2013-02-07 02:36:00,59.4,58.5,28.28,SE,135,13.0,15.0,97,0.00,,,0.00,meteohub,2013-02-07 08:36:00,
2013-02-07 02:41:00,59.4,58.5,28.28,East,90,14.0,15.0,97,0.00,,,0.00,meteohub,2013-02-07 08:41:00,
2013-02-07 02:46:00,59.2,58.3,28.28,SE,135,11.0,14.0,97,0.00,,,0.00,meteohub,2013-02-07 08:46:00,
2013-02-07 02:51:00,59.2,58.3,28.27,SE,135,11.0,14.0,97,0.00,,,0.00,meteohub,2013-02-07 08:51:00,
2013-02-07 02:56:00,59.0,58.1,28.28,East,90,8.0,15.0,97,0.00,,,0.00,meteohub,2013-02-07 08:56:00,
2013-02-07 03:01:00,59.2,58.3,28.27,East,90,12.0,15.0,97,0.00,,,0.00,meteohub,2013-02-07 09:01:00,
2013-02-07 03:06:00,59.0,58.5,28.27,SE,135,12.0,14.0,98,0.00,,,0.00,meteohub,2013-02-07 09:06:00,
2013-02-07 03:11:00,58.8,58.3,28.27,East,90,9.0,15.0,98,0.00,,,0.00,meteohub,2013-02-07 09:11:00,
2013-02-07 03:16:00,58.5,57.9,28.27,SE,135,10.0,15.0,98,0.00,,,0.00,meteohub,2013-02-07 09:16:00,
2013-02-07 03:21:00,58.1,57.6,28.27,East,90,7.0,15.0,98,0.00,,,0.00,meteohub,2013-02-07 09:21:00,
2013-02-07 03:26:00,58.3,57.7,28.27,East,90,9.0,11.0,98,0.00,,,0.00,meteohub,2013-02-07 09:26:00,
2013-02-07 03:31:00,58.1,57.6,28.26,East,90,6.0,11.0,98,0.00,,,0.00,meteohub,2013-02-07 09:31:00,
2013-02-07 03:36:00,57.9,57.6,28.26,East,90,8.0,11.0,99,0.00,,,0.00,meteohub,2013-02-07 09:36:00,
2013-02-07 03:41:00,57.6,57.2,28.26,East,90,8.0,11.0,99,0.00,,,0.00,meteohub,2013-02-07 09:41:00,
2013-02-07 03:46:00,57.4,57.0,28.26,SSW,203,11.0,11.0,99,0.00,,,0.00,meteohub,2013-02-07 09:46:00,
2013-02-07 03:51:00,57.2,56.8,28.26,East,90,11.0,11.0,99,0.00,,,0.00,meteohub,2013-02-07 09:51:00,
2013-02-07 03:56:00,57.0,56.7,28.26,East,90,11.0,11.0,99,0.00,,,0.00,meteohub,2013-02-07 09:56:00,
2013-02-07 04:01:00,56.5,56.1,28.26,East,90,7.0,11.0,99,0.00,,,0.00,meteohub,2013-02-07 10:01:00,
2013-02-07 04:06:00,56.5,56.1,28.26,East,90,9.0,11.0,99,0.00,,,0.00,meteohub,2013-02-07 10:06:00,
2013-02-07 04:11:00,56.3,55.9,28.26,SE,135,11.0,11.0,99,0.00,,,0.00,meteohub,2013-02-07 10:11:00,
2013-02-07 04:16:00,56.1,55.8,28.25,East,90,8.0,11.0,99,0.00,,,0.00,meteohub,2013-02-07 10:16:00,
2013-02-07 04:21:00,55.9,55.6,28.26,East,90,8.0,11.0,99,0.00,,,0.00,meteohub,2013-02-07 10:21:00,
2013-02-07 04:26:00,55.6,55.2,28.26,SE,135,8.0,11.0,99,0.00,,,0.00,meteohub,2013-02-07 10:26:00,
2013-02-07 04:31:00,55.6,55.2,28.26,East,90,8.0,11.0,99,0.00,,,0.00,meteohub,2013-02-07 10:31:00,
2013-02-07 04:36:00,55.4,55.0,28.25,East,90,7.0,10.0,99,0.00,,,0.00,meteohub,2013-02-07 10:36:00,
2013-02-07 04:41:00,55.4,55.0,28.25,SE,135,9.0,10.0,99,0.00,,,0.00,meteohub,2013-02-07 10:41:00,
2013-02-07 04:46:00,55.2,54.9,28.25,East,90,7.0,9.0,99,0.00,,,0.00,meteohub,2013-02-07 10:46:00,
2013-02-07 04:51:00,55.0,54.7,28.25,East,90,5.0,9.0,99,0.00,,,0.00,meteohub,2013-02-07 10:51:00,
2013-02-07 04:56:00,54.7,54.3,28.25,East,90,8.0,9.0,99,0.00,,,0.00,meteohub,2013-02-07 10:56:00,
2013-02-07 05:01:00,54.5,54.1,28.25,East,90,8.0,9.0,99,0.00,,,0.00,meteohub,2013-02-07 11:01:00,
2013-02-07 05:07:00,54.5,54.1,28.25,SE,135,7.0,8.0,99,0.00,,,0.00,meteohub,2013-02-07 11:07:00,
2013-02-07 05:12:00,54.1,53.8,28.25,SE,135,7.0,11.0,99,0.00,,,0.00,meteohub,2013-02-07 11:12:00,
2013-02-07 05:17:00,54.5,54.1,28.25,ESE,113,11.0,11.0,99,0.00,,,0.00,meteohub,2013-02-07 11:17:00,
2013-02-07 05:22:00,54.1,53.8,28.25,East,90,10.0,11.0,99,0.00,,,0.00,meteohub,2013-02-07 11:22:00,
2013-02-07 05:27:00,54.0,53.6,28.25,East,90,4.0,11.0,99,0.00,,,0.00,meteohub,2013-02-07 11:27:00,
2013-02-07 05:32:00,54.0,53.6,28.26,East,90,4.0,11.0,99,0.00,,,0.00,meteohub,2013-02-07 11:32:00,
2013-02-07 05:37:00,53.8,53.4,28.25,SE,135,4.0,10.0,99,0.00,,,0.00,meteohub,2013-02-07 11:37:00,
2013-02-07 05:42:00,53.8,53.4,28.26,East,90,4.0,8.0,99,0.00,,,0.00,meteohub,2013-02-07 11:42:00,
2013-02-07 05:47:00,53.4,53.1,28.26,East,90,6.0,7.0,99,0.00,,,0.00,meteohub,2013-02-07 11:47:00,
2013-02-07 05:52:00,53.2,52.9,28.26,East,90,4.0,7.0,99,0.00,,,0.00,meteohub,2013-02-07 11:52:00,
2013-02-07 05:57:00,52.9,52.5,28.25,East,90,4.0,6.0,99,0.00,,,0.00,meteohub,2013-02-07 11:57:00,
2013-02-07 06:02:00,52.5,52.2,28.25,East,90,5.0,6.0,99,0.00,,,0.00,meteohub,2013-02-07 12:02:00,
2013-02-07 06:07:00,52.7,52.3,28.26,East,90,4.0,6.0,99,0.00,,,0.00,meteohub,2013-02-07 12:07:00,
2013-02-07 06:12:00,52.3,52.0,28.26,East,90,3.0,6.0,99,0.00,,,0.00,meteohub,2013-02-07 12:12:00,
2013-02-07 06:17:00,52.2,51.8,28.26,East,90,5.0,6.0,99,0.00,,,0.00,meteohub,2013-02-07 12:17:00,
2013-02-07 06:22:00,52.0,51.6,28.26,East,90,2.0,5.0,99,0.00,,,0.00,meteohub,2013-02-07 12:22:00,
2013-02-07 06:27:00,51.8,51.4,28.26,East,90,3.0,5.0,99,0.00,,,0.00,meteohub,2013-02-07 12:27:00,
2013-02-07 06:32:00,51.6,51.3,28.26,East,90,2.0,5.0,99,0.00,,,0.00,meteohub,2013-02-07 12:32:00,
2013-02-07 06:37:00,51.4,51.1,28.27,East,90,0.0,4.0,99,0.00,,,0.00,meteohub,2013-02-07 12:37:00,
2013-02-07 06:42:00,51.1,50.7,28.27,East,90,2.0,4.0,99,0.00,,,0.00,meteohub,2013-02-07 12:42:00,
2013-02-07 06:47:00,51.3,50.9,28.27,East,90,3.0,4.0,99,0.00,,,0.00,meteohub,2013-02-07 12:47:00,
2013-02-07 06:52:00,50.9,50.5,28.27,SE,135,3.0,3.0,99,0.00,,,0.00,meteohub,2013-02-07 12:52:00,
2013-02-07 06:57:00,50.9,50.5,28.27,East,90,2.0,4.0,99,0.00,,,0.00,meteohub,2013-02-07 12:57:00,
2013-02-07 07:02:00,50.9,50.5,28.27,East,90,0.0,4.0,99,0.00,,,0.00,meteohub,2013-02-07 13:02:00,
2013-02-07 07:07:00,50.5,50.2,28.27,SE,135,2.0,4.0,99,0.00,,,0.00,meteohub,2013-02-07 13:07:00,
2013-02-07 07:12:00,50.4,50.0,28.27,SE,135,2.0,3.0,99,0.00,,,0.00,meteohub,2013-02-07 13:12:00,
2013-02-07 07:17:00,50.0,49.6,28.28,SW,225,2.0,2.0,99,0.00,,,0.00,meteohub,2013-02-07 13:17:00,
2013-02-07 07:22:00,50.0,49.6,28.28,South,180,2.0,2.0,99,0.00,,,0.00,meteohub,2013-02-07 13:22:00,
2013-02-07 07:27:00,50.2,49.8,28.28,West,270,3.0,5.0,99,0.00,,,0.00,meteohub,2013-02-07 13:27:00,
2013-02-07 07:32:00,50.2,49.8,28.29,SW,225,4.0,6.0,99,0.00,,,0.00,meteohub,2013-02-07 13:32:00,
2013-02-07 07:37:00,49.6,49.5,28.29,SW,225,4.0,6.0,99,0.00,,,0.00,meteohub,2013-02-07 13:37:00,
2013-02-07 07:42:00,49.5,49.3,28.29,NW,315,6.0,6.0,99,0.00,,,0.00,meteohub,2013-02-07 13:42:00,
2013-02-07 07:47:00,49.5,48.6,28.29,West,270,5.0,8.0,97,0.00,,,0.00,meteohub,2013-02-07 13:47:00,
2013-02-07 07:52:00,47.5,46.0,28.30,West,270,5.0,9.0,95,0.00,,,0.00,meteohub,2013-02-07 13:52:00,
2013-02-07 07:57:00,46.8,46.0,28.29,West,270,4.0,9.0,97,0.00,,,0.00,meteohub,2013-02-07 13:57:00,
2013-02-07 08:02:00,46.2,46.0,28.30,North,0,6.0,8.0,99,0.00,,,0.00,meteohub,2013-02-07 14:02:00,
2013-02-07 08:07:00,46.0,45.9,28.30,NW,315,6.0,9.0,99,0.00,,,0.00,meteohub,2013-02-07 14:07:00,
2013-02-07 08:12:00,46.9,46.8,28.30,NW,315,6.0,9.0,99,0.00,,,0.00,meteohub,2013-02-07 14:12:00,
2013-02-07 08:17:00,47.8,47.7,28.31,North,0,6.0,9.0,99,0.00,,,0.00,meteohub,2013-02-07 14:17:00,
2013-02-07 08:22:00,48.6,48.4,28.31,NW,315,5.0,8.0,99,0.00,,,0.00,meteohub,2013-02-07 14:22:00,
2013-02-07 08:27:00,48.9,48.7,28.32,NW,315,4.0,7.0,99,0.00,,,0.00,meteohub,2013-02-07 14:27:00,
2013-02-07 08:32:00,49.6,49.5,28.32,North,0,6.0,7.0,99,0.00,,,0.00,meteohub,2013-02-07 14:32:00,
2013-02-07 08:37:00,50.7,50.4,28.33,NW,315,4.0,6.0,99,0.00,,,0.00,meteohub,2013-02-07 14:37:00,
2013-02-07 08:42:00,51.4,51.1,28.34,North,0,5.0,7.0,99,0.00,,,0.00,meteohub,2013-02-07 14:42:00,
2013-02-07 08:47:00,52.2,51.8,28.34,West,270,4.0,7.0,99,0.00,,,0.00,meteohub,2013-02-07 14:47:00,
2013-02-07 08:52:00,52.9,52.5,28.34,NW,315,4.0,7.0,99,0.00,,,0.00,meteohub,2013-02-07 14:52:00,
2013-02-07 08:57:00,54.3,54.0,28.34,West,270,9.0,9.0,99,0.00,,,0.00,meteohub,2013-02-07 14:57:00,
2013-02-07 09:02:00,54.9,54.5,28.34,NW,315,7.0,10.0,99,0.00,,,0.00,meteohub,2013-02-07 15:02:00,
2013-02-07 09:07:00,55.2,54.9,28.34,NW,315,11.0,11.0,99,0.00,,,0.00,meteohub,2013-02-07 15:07:00,
2013-02-07 09:12:00,55.6,55.2,28.35,West,270,9.0,13.0,99,0.00,,,0.00,meteohub,2013-02-07 15:12:00,
2013-02-07 09:17:00,55.6,55.2,28.35,NW,315,7.0,13.0,99,0.00,,,0.00,meteohub,2013-02-07 15:17:00,
2013-02-07 09:22:00,56.3,55.8,28.35,NW,315,9.0,13.0,98,0.00,,,0.00,meteohub,2013-02-07 15:22:00,
2013-02-07 09:27:00,57.2,56.1,28.35,NW,315,13.0,15.0,96,0.00,,,0.00,meteohub,2013-02-07 15:27:00,
2013-02-07 09:32:00,58.1,56.1,28.35,NW,315,17.0,17.0,93,0.00,,,0.00,meteohub,2013-02-07 15:32:00,
2013-02-07 09:37:00,58.3,55.6,28.35,NW,315,11.0,17.0,91,0.00,,,0.00,meteohub,2013-02-07 15:37:00,
2013-02-07 09:42:00,58.1,54.3,28.35,NW,315,20.0,20.0,87,0.00,,,0.00,meteohub,2013-02-07 15:42:00,
2013-02-07 09:47:00,57.7,54.0,28.36,NW,315,13.0,20.0,87,0.00,,,0.00,meteohub,2013-02-07 15:47:00,
2013-02-07 09:52:00,57.9,54.1,28.37,West,270,17.0,20.0,87,0.00,,,0.00,meteohub,2013-02-07 15:52:00,
2013-02-07 09:57:00,58.3,54.5,28.37,NW,315,13.0,20.0,87,0.00,,,0.00,meteohub,2013-02-07 15:57:00,
2013-02-07 10:02:00,58.5,54.3,28.37,NW,315,12.0,18.0,86,0.00,,,0.00,meteohub,2013-02-07 16:02:00,
2013-02-07 10:07:00,58.3,53.1,28.37,West,270,15.0,19.0,83,0.00,,,0.00,meteohub,2013-02-07 16:07:00,
2013-02-07 10:12:00,57.7,52.7,28.38,WNW,293,20.0,20.0,83,0.00,,,0.00,meteohub,2013-02-07 16:12:00,
2013-02-07 10:17:00,57.9,52.2,28.38,NW,315,10.0,23.0,81,0.00,,,0.00,meteohub,2013-02-07 16:17:00,
2013-02-07 10:22:00,57.7,52.3,28.38,North,0,18.0,23.0,82,0.00,,,0.00,meteohub,2013-02-07 16:22:00,
2013-02-07 10:27:00,58.1,52.7,28.39,NNW,338,21.0,23.0,82,0.00,,,0.00,meteohub,2013-02-07 16:27:00,
2013-02-07 10:32:00,57.9,52.5,28.39,WNW,293,19.0,23.0,82,0.00,,,0.00,meteohub,2013-02-07 16:32:00,
2013-02-07 10:37:00,57.7,52.3,28.40,North,0,14.0,23.0,82,0.00,,,0.00,meteohub,2013-02-07 16:37:00,
2013-02-07 10:43:00,57.4,52.0,28.40,West,270,19.0,23.0,82,0.00,,,0.00,meteohub,2013-02-07 16:43:00,
2013-02-07 10:48:00,57.7,52.0,28.40,North,0,19.0,24.0,81,0.02,,,0.02,meteohub,2013-02-07 16:48:00,
2013-02-07 10:53:00,57.9,51.8,28.40,NW,315,22.0,24.0,80,0.02,,,0.02,meteohub,2013-02-07 16:53:00,
2013-02-07 10:58:00,57.9,51.8,28.41,WNW,293,21.0,24.0,80,0.02,,,0.02,meteohub,2013-02-07 16:58:00,
2013-02-07 11:03:00,57.9,51.8,28.41,North,0,17.0,24.0,80,0.02,,,0.02,meteohub,2013-02-07 17:03:00,
2013-02-07 11:08:00,58.6,51.8,28.41,NW,315,13.0,24.0,78,0.02,,,0.02,meteohub,2013-02-07 17:08:00,
2013-02-07 11:13:00,58.6,51.4,28.41,North,0,18.0,23.0,77,0.02,,,0.02,meteohub,2013-02-07 17:13:00,
2013-02-07 11:18:00,59.2,51.6,28.41,North,0,22.0,23.0,76,0.02,,,0.02,meteohub,2013-02-07 17:18:00,
2013-02-07 11:23:00,59.5,51.6,28.42,North,0,19.0,23.0,75,0.02,,,0.02,meteohub,2013-02-07 17:23:00,
2013-02-07 11:28:00,59.5,51.3,28.42,North,0,18.0,26.0,74,0.02,,,0.02,meteohub,2013-02-07 17:28:00,
2013-02-07 11:33:00,59.5,51.3,28.42,West,270,23.0,27.0,74,0.02,,,0.02,meteohub,2013-02-07 17:33:00,
2013-02-07 11:38:00,60.1,51.1,28.43,NW,315,25.0,27.0,72,0.02,,,0.02,meteohub,2013-02-07 17:38:00,
2013-02-07 11:43:00,60.3,50.9,28.43,NW,315,15.0,26.0,71,0.02,,,0.02,meteohub,2013-02-07 17:43:00,
2013-02-07 11:48:00,60.4,50.5,28.44,NW,315,11.0,28.0,70,0.00,,,0.02,meteohub,2013-02-07 17:48:00,
2013-02-07 11:53:00,60.4,51.1,28.44,North,0,15.0,28.0,71,0.00,,,0.02,meteohub,2013-02-07 17:53:00,
2013-02-07 11:58:00,59.7,50.4,28.45,NW,315,23.0,28.0,71,0.00,,,0.02,meteohub,2013-02-07 17:58:00,
2013-02-07 12:03:00,59.5,50.2,28.45,North,0,17.0,23.0,71,0.00,,,0.02,meteohub,2013-02-07 18:03:00,
2013-02-07 12:08:00,59.2,49.5,28.45,NW,315,22.0,23.0,70,0.00,,,0.02,meteohub,2013-02-07 18:08:00,
2013-02-07 12:13:00,59.4,49.1,28.45,WNW,293,19.0,23.0,69,0.00,,,0.02,meteohub,2013-02-07 18:13:00,
2013-02-07 12:18:00,59.4,48.7,28.45,NW,315,27.0,27.0,68,0.00,,,0.02,meteohub,2013-02-07 18:18:00,
2013-02-07 12:23:00,59.0,48.0,28.46,WNW,293,25.0,30.0,67,0.00,,,0.02,meteohub,2013-02-07 18:23:00,
2013-02-07 12:28:00,59.2,48.6,28.46,North,0,18.0,30.0,68,0.00,,,0.02,meteohub,2013-02-07 18:28:00,
2013-02-07 12:33:00,59.5,48.9,28.46,North,0,19.0,30.0,68,0.00,,,0.02,meteohub,2013-02-07 18:33:00,
2013-02-07 12:38:00,59.9,48.6,28.46,NW,315,26.0,26.0,66,0.00,,,0.02,meteohub,2013-02-07 18:38:00,
2013-02-07 12:43:00,60.1,48.2,28.46,North,0,20.0,26.0,65,0.00,,,0.02,meteohub,2013-02-07 18:43:00,
2013-02-07 12:48:00,60.4,48.2,28.46,North,0,15.0,26.0,64,0.00,,,0.02,meteohub,2013-02-07 18:48:00,
2013-02-07 12:53:00,60.4,47.3,28.46,North,0,15.0,26.0,62,0.00,,,0.02,meteohub,2013-02-07 18:53:00,
2013-02-07 12:58:00,60.6,46.6,28.47,WNW,293,16.0,26.0,60,0.00,,,0.02,meteohub,2013-02-07 18:58:00,
2013-02-07 13:03:00,60.8,45.9,28.47,North,0,21.0,21.0,58,0.00,,,0.02,meteohub,2013-02-07 19:03:00,
2013-02-07 13:08:00,60.3,45.9,28.48,North,0,17.0,21.0,59,0.00,,,0.02,meteohub,2013-02-07 19:08:00,
2013-02-07 13:13:00,60.3,46.4,28.47,NW,315,17.0,21.0,60,0.00,,,0.02,meteohub,2013-02-07 19:13:00,
2013-02-07 13:18:00,60.3,46.8,28.48,WNW,293,17.0,21.0,61,0.00,,,0.02,meteohub,2013-02-07 19:18:00,
2013-02-07 13:23:00,60.3,46.8,28.48,North,0,16.0,21.0,61,0.00,,,0.02,meteohub,2013-02-07 19:23:00,
2013-02-07 13:28:00,60.6,46.2,28.48,NW,315,21.0,21.0,59,0.00,,,0.02,meteohub,2013-02-07 19:28:00,
2013-02-07 13:33:00,60.8,45.5,28.47,WNW,293,22.0,22.0,57,0.00,,,0.02,meteohub,2013-02-07 19:33:00,
2013-02-07 13:38:00,61.3,45.5,28.47,NW,315,17.0,22.0,56,0.00,,,0.02,meteohub,2013-02-07 19:38:00,
2013-02-07 13:43:00,61.9,45.5,28.47,WNW,293,23.0,23.0,55,0.00,,,0.02,meteohub,2013-02-07 19:43:00,
2013-02-07 13:48:00,61.3,46.4,28.48,North,0,12.0,23.0,58,0.00,,,0.02,meteohub,2013-02-07 19:48:00,
2013-02-07 13:53:00,60.8,45.9,28.48,WNW,293,19.0,24.0,58,0.00,,,0.02,meteohub,2013-02-07 19:53:00,
2013-02-07 13:58:00,60.3,43.5,28.49,NW,315,19.0,24.0,54,0.00,,,0.02,meteohub,2013-02-07 19:58:00,
2013-02-07 14:04:00,58.6,43.5,28.49,NW,315,15.0,24.0,57,0.00,,,0.02,meteohub,2013-02-07 20:04:00,
2013-02-07 14:09:00,57.7,43.0,28.49,WNW,293,16.0,25.0,58,0.00,,,0.02,meteohub,2013-02-07 20:09:00,
2013-02-07 14:14:00,57.4,42.8,28.49,NW,315,19.0,25.0,58,0.00,,,0.02,meteohub,2013-02-07 20:14:00,
2013-02-07 14:19:00,57.6,43.0,28.50,North,0,15.0,25.0,58,0.00,,,0.02,meteohub,2013-02-07 20:19:00,
2013-02-07 14:24:00,57.2,43.0,28.50,North,0,17.0,23.0,59,0.00,,,0.02,meteohub,2013-02-07 20:24:00,
2013-02-07 14:29:00,57.2,43.5,28.50,NW,315,15.0,19.0,60,0.00,,,0.02,meteohub,2013-02-07 20:29:00,
2013-02-07 14:34:00,57.0,43.3,28.50,North,0,17.0,18.0,60,0.00,,,0.02,meteohub,2013-02-07 20:34:00,
2013-02-07 14:39:00,57.2,42.6,28.50,North,0,21.0,21.0,58,0.00,,,0.02,meteohub,2013-02-07 20:39:00,
2013-02-07 14:44:00,57.9,42.8,28.50,NW,315,21.0,21.0,57,0.00,,,0.02,meteohub,2013-02-07 20:44:00,
2013-02-07 14:49:00,58.3,42.3,28.51,NW,315,18.0,21.0,55,0.00,,,0.02,meteohub,2013-02-07 20:49:00,
2013-02-07 14:54:00,59.0,43.3,28.51,NW,315,21.0,21.0,56,0.00,,,0.02,meteohub,2013-02-07 20:54:00,
2013-02-07 14:59:00,59.4,42.8,28.51,North,0,21.0,21.0,54,0.00,,,0.02,meteohub,2013-02-07 20:59:00,
2013-02-07 15:04:00,58.6,42.4,28.51,North,0,15.0,21.0,55,0.00,,,0.02,meteohub,2013-02-07 21:04:00,
2013-02-07 15:09:00,58.8,42.6,28.51,NW,315,15.0,21.0,55,0.00,,,0.02,meteohub,2013-02-07 21:09:00,
2013-02-07 15:14:00,58.8,42.6,28.51,NE,45,13.0,21.0,55,0.00,,,0.02,meteohub,2013-02-07 21:14:00,
2013-02-07 15:19:00,58.6,42.4,28.51,North,0,18.0,21.0,55,0.00,,,0.02,meteohub,2013-02-07 21:19:00,
2013-02-07 15:24:00,59.7,43.0,28.51,WNW,293,18.0,21.0,54,0.00,,,0.02,meteohub,2013-02-07 21:24:00,
2013-02-07 15:29:00,60.3,42.6,28.51,NW,315,13.0,19.0,52,0.00,,,0.02,meteohub,2013-02-07 21:29:00,
2013-02-07 15:34:00,60.4,41.7,28.51,NW,315,17.0,18.0,50,0.00,,,0.02,meteohub,2013-02-07 21:34:00,
2013-02-07 15:39:00,59.9,41.7,28.51,North,0,14.0,22.0,51,0.00,,,0.02,meteohub,2013-02-07 21:39:00,
2013-02-07 15:44:00,59.9,41.7,28.52,WNW,293,18.0,22.0,51,0.00,,,0.02,meteohub,2013-02-07 21:44:00,
2013-02-07 15:49:00,60.1,41.9,28.52,North,0,10.0,21.0,51,0.00,,,0.02,meteohub,2013-02-07 21:49:00,
2013-02-07 15:54:00,60.1,41.9,28.52,North,0,14.0,22.0,51,0.00,,,0.02,meteohub,2013-02-07 21:54:00,
2013-02-07 15:59:00,60.1,42.4,28.53,North,0,21.0,22.0,52,0.00,,,0.02,meteohub,2013-02-07 21:59:00,
2013-02-07 16:04:00,59.9,41.7,28.52,North,0,19.0,22.0,51,0.00,,,0.02,meteohub,2013-02-07 22:04:00,
2013-02-07 16:09:00,59.7,42.1,28.52,North,0,10.0,23.0,52,0.00,,,0.02,meteohub,2013-02-07 22:09:00,
2013-02-07 16:14:00,59.7,41.5,28.52,NW,315,20.0,23.0,51,0.00,,,0.02,meteohub,2013-02-07 22:14:00,
2013-02-07 16:19:00,59.5,41.9,28.53,North,0,17.0,23.0,52,0.00,,,0.02,meteohub,2013-02-07 22:19:00,
2013-02-07 16:24:00,59.5,42.4,28.53,WNW,293,17.0,21.0,53,0.00,,,0.02,meteohub,2013-02-07 22:24:00,
2013-02-07 16:29:00,59.7,43.0,28.53,NW,315,10.0,20.0,54,0.00,,,0.02,meteohub,2013-02-07 22:29:00,
2013-02-07 16:34:00,59.5,42.4,28.54,North,0,17.0,27.0,53,0.00,,,0.02,meteohub,2013-02-07 22:34:00,
2013-02-07 16:39:00,59.2,42.1,28.54,NW,315,17.0,27.0,53,0.00,,,0.02,meteohub,2013-02-07 22:39:00,
2013-02-07 16:44:00,59.4,38.7,28.54,North,0,15.0,21.0,46,0.00,,,0.02,meteohub,2013-02-07 22:44:00,
2013-02-07 16:49:00,59.2,37.9,28.54,North,0,12.0,24.0,45,0.00,,,0.02,meteohub,2013-02-07 22:49:00,
2013-02-07 16:54:00,59.2,37.2,28.54,North,0,17.0,24.0,44,0.00,,,0.02,meteohub,2013-02-07 22:54:00,
2013-02-07 16:59:00,59.2,36.1,28.54,North,0,15.0,24.0,42,0.00,,,0.02,meteohub,2013-02-07 22:59:00,
2013-02-07 17:04:00,59.0,35.4,28.55,North,0,11.0,23.0,41,0.00,,,0.02,meteohub,2013-02-07 23:04:00,
2013-02-07 17:09:00,59.0,34.2,28.55,NW,315,18.0,23.0,39,0.00,,,0.02,meteohub,2013-02-07 23:09:00,
2013-02-07 17:14:00,58.8,33.3,28.55,North,0,23.0,23.0,38,0.00,,,0.02,meteohub,2013-02-07 23:14:00,
2013-02-07 17:19:00,58.6,30.4,28.55,North,0,12.0,21.0,34,0.00,,,0.02,meteohub,2013-02-07 23:19:00,
2013-02-07 17:24:00,58.3,27.9,28.56,NW,315,22.0,23.0,31,0.00,,,0.02,meteohub,2013-02-07 23:24:00,
2013-02-07 17:29:00,58.1,27.7,28.56,North,0,11.0,23.0,31,0.00,,,0.02,meteohub,2013-02-07 23:29:00,
2013-02-07 17:34:00,57.9,26.6,28.56,North,0,11.0,22.0,30,0.00,,,0.02,meteohub,2013-02-07 23:34:00,
2013-02-07 17:39:00,57.9,26.6,28.57,North,0,15.0,22.0,30,0.00,,,0.02,meteohub,2013-02-07 23:39:00,
2013-02-07 17:44:00,57.6,26.4,28.57,WNW,293,10.0,18.0,30,0.00,,,0.02,meteohub,2013-02-07 23:44:00,
2013-02-07 17:49:00,57.2,26.8,28.57,NW,315,16.0,16.0,31,0.00,,,0.02,meteohub,2013-02-07 23:49:00,
2013-02-07 17:54:00,56.7,25.5,28.57,NW,315,8.0,16.0,30,0.00,,,0.02,meteohub,2013-02-07 23:54:00,
2013-02-07 17:59:00,56.3,25.3,28.57,North,0,13.0,16.0,30,0.00,,,0.02,meteohub,2013-02-07 23:59:00,
2013-02-07 18:04:00,55.8,24.8,28.58,North,0,8.0,16.0,30,0.00,,,0.02,meteohub,2013-02-08 00:04:00,
2013-02-07 18:10:00,55.4,26.1,28.58,North,0,9.0,16.0,32,0.00,,,0.00,meteohub,2013-02-08 00:10:00,
2013-02-07 18:15:00,55.0,25.7,28.58,North,0,8.0,15.0,32,0.00,,,0.00,meteohub,2013-02-08 00:15:00,
2013-02-07 18:20:00,54.5,26.1,28.58,North,0,4.0,11.0,33,0.00,,,0.00,meteohub,2013-02-08 00:20:00,
2013-02-07 18:25:00,54.5,26.8,28.58,North,0,7.0,11.0,34,0.00,,,0.00,meteohub,2013-02-08 00:25:00,
2013-02-07 18:30:00,54.1,26.4,28.58,NW,315,4.0,11.0,34,0.00,,,0.00,meteohub,2013-02-08 00:30:00,
2013-02-07 18:35:00,53.6,26.6,28.59,North,0,5.0,11.0,35,0.00,,,0.00,meteohub,2013-02-08 00:35:00,
2013-02-07 18:40:00,53.4,26.4,28.59,North,0,2.0,9.0,35,0.00,,,0.00,meteohub,2013-02-08 00:40:00,
2013-02-07 18:45:00,53.2,27.0,28.59,North,0,3.0,9.0,36,0.00,,,0.00,meteohub,2013-02-08 00:45:00,
2013-02-07 18:50:00,52.7,27.1,28.60,SW,225,3.0,6.0,37,0.00,,,0.00,meteohub,2013-02-08 00:50:00,
2013-02-07 18:55:00,52.3,26.8,28.60,North,0,3.0,6.0,37,0.00,,,0.00,meteohub,2013-02-08 00:55:00,
2013-02-07 19:00:00,51.8,27.0,28.60,North,0,4.0,6.0,38,0.00,,,0.00,meteohub,2013-02-08 01:00:00,
2013-02-07 19:05:00,51.8,27.0,28.61,North,0,4.0,5.0,38,0.00,,,0.00,meteohub,2013-02-08 01:05:00,
2013-02-07 19:10:00,51.6,27.5,28.60,North,0,2.0,5.0,39,0.00,,,0.00,meteohub,2013-02-08 01:10:00,
2013-02-07 19:15:00,51.4,27.3,28.61,NE,45,3.0,4.0,39,0.00,,,0.00,meteohub,2013-02-08 01:15:00,
2013-02-07 19:20:00,51.3,27.1,28.61,North,0,2.0,4.0,39,0.00,,,0.00,meteohub,2013-02-08 01:20:00,
2013-02-07 19:25:00,51.3,27.1,28.61,North,0,4.0,4.0,39,0.00,,,0.00,meteohub,2013-02-08 01:25:00,
2013-02-07 19:30:00,51.4,27.9,28.62,NW,315,3.0,4.0,40,0.00,,,0.00,meteohub,2013-02-08 01:30:00,
2013-02-07 19:35:00,50.0,27.1,28.62,NW,315,2.0,4.0,41,0.00,,,0.00,meteohub,2013-02-08 01:35:00,
2013-02-07 19:40:00,47.7,26.8,28.63,West,270,2.0,4.0,44,0.00,,,0.00,meteohub,2013-02-08 01:40:00,
2013-02-07 19:45:00,46.0,27.9,28.63,North,0,3.0,3.0,49,0.00,,,0.00,meteohub,2013-02-08 01:45:00,
2013-02-07 19:50:00,46.2,28.0,28.63,North,0,2.0,3.0,49,0.00,,,0.00,meteohub,2013-02-08 01:50:00,
2013-02-07 19:55:00,46.8,28.6,28.63,North,0,2.0,3.0,49,0.00,,,0.00,meteohub,2013-02-08 01:55:00,
2013-02-07 20:00:00,47.3,28.6,28.63,North,0,2.0,3.0,48,0.00,,,0.00,meteohub,2013-02-08 02:00:00,
2013-02-07 20:05:00,47.3,28.0,28.63,NW,315,2.0,3.0,47,0.00,,,0.00,meteohub,2013-02-08 02:05:00,
2013-02-07 20:11:00,47.7,28.4,28.64,North,0,2.0,3.0,47,0.00,,,0.00,meteohub,2013-02-08 02:11:00,
2013-02-07 20:16:00,47.7,28.4,28.64,NW,315,3.0,3.0,47,0.00,,,0.00,meteohub,2013-02-08 02:16:00,
2013-02-07 20:21:00,47.5,28.2,28.64,WNW,293,3.0,4.0,47,0.00,,,0.00,meteohub,2013-02-08 02:21:00,
2013-02-07 20:26:00,47.3,28.0,28.64,North,0,3.0,4.0,47,0.00,,,0.00,meteohub,2013-02-08 02:26:00,
2013-02-07 20:31:00,47.1,28.4,28.64,NW,315,2.0,4.0,48,0.00,,,0.00,meteohub,2013-02-08 02:31:00,
2013-02-07 20:36:00,46.8,28.6,28.64,NW,315,2.0,4.0,49,0.00,,,0.00,meteohub,2013-02-08 02:36:00,
2013-02-07 20:41:00,46.8,28.6,28.65,North,0,3.0,3.0,49,0.00,,,0.00,meteohub,2013-02-08 02:41:00,
2013-02-07 20:46:00,46.4,28.2,28.65,NW,315,2.0,3.0,49,0.00,,,0.00,meteohub,2013-02-08 02:46:00,
2013-02-07 20:51:00,45.7,28.0,28.65,North,0,2.0,3.0,50,0.00,,,0.00,meteohub,2013-02-08 02:51:00,
2013-02-07 20:56:00,45.1,28.0,28.66,North,0,2.0,4.0,51,0.00,,,0.00,meteohub,2013-02-08 02:56:00,
2013-02-07 21:01:00,45.0,28.4,28.66,North,0,2.0,4.0,52,0.00,,,0.00,meteohub,2013-02-08 03:01:00,
2013-02-07 21:06:00,44.6,28.6,28.66,NW,315,3.0,4.0,53,0.00,,,0.00,meteohub,2013-02-08 03:06:00,
2013-02-07 21:11:00,44.6,28.6,28.66,NW,315,3.0,4.0,53,0.00,,,0.00,meteohub,2013-02-08 03:11:00,
2013-02-07 21:16:00,44.6,28.6,28.66,NW,315,3.0,4.0,53,0.00,,,0.00,meteohub,2013-02-08 03:16:00,
2013-02-07 21:21:00,44.6,28.6,28.67,NW,315,3.0,4.0,53,0.00,,,0.00,meteohub,2013-02-08 03:21:00,
2013-02-07 21:26:00,44.2,28.2,28.67,North,0,3.0,4.0,53,0.00,,,0.00,meteohub,2013-02-08 03:26:00,
2013-02-07 21:31:00,43.9,28.4,28.67,North,0,3.0,4.0,54,0.00,,,0.00,meteohub,2013-02-08 03:31:00,
2013-02-07 21:36:00,43.5,28.4,28.67,NW,315,3.0,4.0,55,0.00,,,0.00,meteohub,2013-02-08 03:36:00,
2013-02-07 21:41:00,43.2,28.6,28.68,NW,315,3.0,3.0,56,0.00,,,0.00,meteohub,2013-02-08 03:41:00,
2013-02-07 21:46:00,42.8,28.6,28.68,NW,315,2.0,3.0,57,0.00,,,0.00,meteohub,2013-02-08 03:46:00,
2013-02-07 21:51:00,42.6,28.9,28.68,West,270,2.0,3.0,58,0.00,,,0.00,meteohub,2013-02-08 03:51:00,
2013-02-07 21:56:00,42.1,28.8,28.69,NW,315,2.0,3.0,59,0.00,,,0.00,meteohub,2013-02-08 03:56:00,
2013-02-07 22:01:00,42.1,29.1,28.69,NW,315,3.0,3.0,60,0.00,,,0.00,meteohub,2013-02-08 04:01:00,
2013-02-07 22:06:00,41.9,29.5,28.69,NW,315,4.0,4.0,61,0.00,,,0.00,meteohub,2013-02-08 04:06:00,
2013-02-07 22:11:00,41.9,28.9,28.69,NW,315,3.0,4.0,60,0.00,,,0.00,meteohub,2013-02-08 04:11:00,
2013-02-07 22:16:00,41.7,29.3,28.69,NW,315,2.0,7.0,61,0.00,,,0.00,meteohub,2013-02-08 04:16:00,
2013-02-07 22:21:00,41.7,29.3,28.69,NW,315,2.0,7.0,61,0.00,,,0.00,meteohub,2013-02-08 04:21:00,
2013-02-07 22:26:00,41.7,29.3,28.69,NW,315,3.0,4.0,61,0.00,,,0.00,meteohub,2013-02-08 04:26:00,
2013-02-07 22:31:00,41.7,29.3,28.69,NW,315,2.0,4.0,61,0.00,,,0.00,meteohub,2013-02-08 04:31:00,
2013-02-07 22:36:00,41.7,29.7,28.69,North,0,2.0,4.0,62,0.00,,,0.00,meteohub,2013-02-08 04:36:00,
2013-02-07 22:41:00,41.5,29.5,28.69,North,0,2.0,4.0,62,0.00,,,0.00,meteohub,2013-02-08 04:41:00,
2013-02-07 22:46:00,41.4,29.7,28.69,North,0,3.0,3.0,63,0.00,,,0.00,meteohub,2013-02-08 04:46:00,
2013-02-07 22:51:00,41.4,30.0,28.69,NW,315,4.0,4.0,64,0.00,,,0.00,meteohub,2013-02-08 04:51:00,
2013-02-07 22:56:00,41.5,30.2,28.70,NNW,338,3.0,4.0,64,0.00,,,0.00,meteohub,2013-02-08 04:56:00,
2013-02-07 23:00:00,41.7,30.4,28.70,North,0,2.0,4.0,64,0.00,,,0.00,meteohub,2013-02-08 05:00:00,
2013-02-07 23:01:00,41.5,30.2,28.70,NW,315,3.0,4.0,64,0.00,,,0.00,meteohub,2013-02-08 05:01:00,
2013-02-07 23:06:00,41.4,30.0,28.70,North,0,4.0,4.0,64,0.00,,,0.00,meteohub,2013-02-08 05:06:00,
2013-02-07 23:11:00,41.2,30.0,28.70,NW,315,2.0,4.0,64,0.00,,,0.00,meteohub,2013-02-08 05:11:00,
2013-02-07 23:16:00,41.0,30.2,28.70,North,0,3.0,4.0,65,0.00,,,0.00,meteohub,2013-02-08 05:16:00,
2013-02-07 23:21:00,41.0,30.2,28.70,NW,315,2.0,4.0,65,0.00,,,0.00,meteohub,2013-02-08 05:21:00,
2013-02-07 23:26:00,40.6,29.8,28.70,NW,315,2.0,3.0,65,0.00,,,0.00,meteohub,2013-02-08 05:26:00,
2013-02-07 23:31:00,39.9,29.5,28.71,NW,315,2.0,3.0,66,0.00,,,0.00,meteohub,2013-02-08 05:31:00,
2013-02-07 23:36:00,40.1,30.0,28.71,NW,315,3.0,3.0,67,0.00,,,0.00,meteohub,2013-02-08 05:36:00,
2013-02-07 23:41:00,40.1,30.0,28.70,North,0,3.0,4.0,67,0.00,,,0.00,meteohub,2013-02-08 05:41:00,
2013-02-07 23:46:00,40.1,30.4,28.71,North,0,3.0,4.0,68,0.00,,,0.00,meteohub,2013-02-08 05:46:00,
2013-02-07 23:51:00,40.5,30.4,28.71,North,0,2.0,3.0,67,0.00,,,0.00,meteohub,2013-02-08 05:51:00,
2013-02-07 23:56:00,40.8,30.4,28.71,North,0,3.0,3.0,66,0.00,,,0.00,meteohub,2013-02-08 05:56:00,